Time;durP1;ratioP1;P1;durP2;ratioP2;P2;SDS_P1;SDS_P2;PMS_P1;PMS_P2;Temp;Humidity;BMP_temperature;BMP_pressure;BME280_temperature;BME280_humidity;BME280_pressure;Samples;Min_cycle;Max_cycle;Signal;HPM_P1;HPM_P2
2023/04/30 00:00:48;;;;;;;25.60;23.40;;;11.30;99.90;;;;;;5040661;28;20193;-48
2023/04/30 00:03:14;;;;;;;26.37;23.93;;;11.30;99.90;;;;;;5041158;28;20614;-50
2023/04/30 00:05:39;;;;;;;25.60;23.40;;;11.30;99.90;;;;;;5039803;28;20588;-52
2023/04/30 00:08:05;;;;;;;25.90;23.60;;;11.30;99.90;;;;;;5039457;28;20192;-51
2023/04/30 00:10:31;;;;;;;26.47;24.17;;;11.20;99.90;;;;;;5039601;28;20186;-50
2023/04/30 00:12:57;;;;;;;27.93;25.33;;;11.20;99.90;;;;;;5020886;28;20189;-51
2023/04/30 00:15:22;;;;;;;26.33;23.87;;;11.20;99.90;;;;;;5046469;28;20190;-50
2023/04/30 00:17:48;;;;;;;26.97;24.40;;;11.20;99.90;;;;;;5038344;28;20448;-51
2023/04/30 00:20:14;;;;;;;27.17;24.60;;;11.20;99.90;;;;;;5040988;28;20670;-49
2023/04/30 00:22:40;;;;;;;25.83;23.40;;;11.20;99.90;;;;;;5039226;28;20190;-52
2023/04/30 00:25:05;;;;;;;25.37;23.30;;;11.20;99.90;;;;;;5039737;28;20429;-50
2023/04/30 00:27:31;;;;;;;26.80;24.30;;;11.20;99.90;;;;;;5046804;28;20189;-51
2023/04/30 00:29:57;;;;;;;25.13;23.03;;;11.20;99.90;;;;;;5038607;28;20189;-48
2023/04/30 00:32:23;;;;;;;25.80;23.50;;;11.20;99.90;;;;;;5040363;28;20307;-48
2023/04/30 00:34:48;;;;;;;26.27;23.77;;;11.20;99.90;;;;;;5033628;28;20483;-50
2023/04/30 00:37:14;;;;;;;25.53;23.13;;;11.20;99.90;;;;;;5016701;28;20213;-49
2023/04/30 00:39:39;;;;;;;25.80;23.40;;;11.20;99.90;;;;;;5001599;28;20664;-49
2023/04/30 00:42:05;;;;;;;25.57;23.17;;;11.10;99.90;;;;;;5020643;28;20193;-50
2023/04/30 00:44:30;;;;;;;26.03;23.53;;;11.20;99.90;;;;;;5030709;28;20217;-54
2023/04/30 00:46:56;;;;;;;26.37;23.93;;;11.20;99.90;;;;;;5029054;28;20237;-51
2023/04/30 00:49:22;;;;;;;25.37;22.87;;;11.20;99.90;;;;;;5032901;28;20261;-50
2023/04/30 00:51:48;;;;;;;22.90;20.80;;;11.30;99.90;;;;;;5034198;28;21046;-48
2023/04/30 00:54:14;;;;;;;23.37;21.40;;;11.30;99.90;;;;;;5038897;28;20269;-54
2023/04/30 00:56:40;;;;;;;24.80;22.30;;;11.30;99.90;;;;;;5026258;28;20459;-48
2023/04/30 00:59:06;;;;;;;21.27;19.47;;;11.30;99.90;;;;;;5037856;28;20418;-49
2023/04/30 01:01:32;;;;;;;20.90;19.20;;;11.20;99.90;;;;;;5037919;28;20416;-50
2023/04/30 01:03:59;;;;;;;21.83;19.93;;;11.20;99.90;;;;;;5031848;28;20923;-50
2023/04/30 01:06:25;;;;;;;20.30;18.53;;;11.20;99.90;;;;;;5035221;28;20433;-51
2023/04/30 01:08:52;;;;;;;20.57;18.80;;;11.10;99.90;;;;;;5032917;28;20420;-54
2023/04/30 01:11:23;;;;;;;18.83;17.53;;;11.00;99.90;;;;;;5028052;28;20450;-49
2023/04/30 01:14:03;;;;;;;18.23;16.83;;;10.90;99.90;;;;;;5039444;28;20423;-51
2023/04/30 01:16:34;;;;;;;17.93;16.67;;;10.90;99.90;;;;;;5001668;28;20467;-53
2023/04/30 01:19:07;;;;;;;16.90;15.70;;;10.80;99.90;;;;;;5032233;28;20838;-50
2023/04/30 01:21:35;;;;;;;16.60;15.40;;;10.80;99.90;;;;;;5036587;28;21148;-49
2023/04/30 01:24:00;;;;;;;17.37;16.00;;;10.70;99.90;;;;;;5034413;28;20441;-54
2023/04/30 01:26:34;;;;;;;16.80;15.50;;;10.70;99.90;;;;;;5038390;28;20443;-46
2023/04/30 01:29:02;;;;;;;18.00;16.60;;;10.70;99.90;;;;;;5030867;28;20192;-53
2023/04/30 01:31:28;;;;;;;17.47;16.20;;;10.60;99.90;;;;;;5037712;28;20781;-51
2023/04/30 01:33:54;;;;;;;16.83;15.63;;;10.60;99.90;;;;;;5042400;28;20475;-51
2023/04/30 01:36:47;;;;;;;17.40;16.13;;;10.60;99.90;;;;;;5039014;28;21004;-52
2023/04/30 01:39:33;;;;;;;17.40;16.10;;;10.50;99.90;;;;;;5042282;28;20212;-50
2023/04/30 01:42:20;;;;;;;16.47;15.37;;;10.40;99.90;;;;;;5025181;28;20553;-53
2023/04/30 01:45:22;;;;;;;16.43;15.33;;;10.30;99.90;;;;;;5031426;28;20426;-49
2023/04/30 01:47:56;;;;;;;16.23;15.13;;;10.20;99.90;;;;;;5040867;28;20426;-49
2023/04/30 01:50:25;;;;;;;17.70;16.40;;;10.10;99.90;;;;;;5041954;28;20439;-51
2023/04/30 01:52:53;;;;;;;18.50;17.20;;;10.00;99.90;;;;;;5042825;28;20422;-53
2023/04/30 01:55:40;;;;;;;17.70;16.40;;;9.80;99.90;;;;;;5040056;28;21245;-52
2023/04/30 01:58:09;;;;;;;17.80;16.23;;;9.70;99.90;;;;;;5034343;28;20464;-52
2023/04/30 02:00:35;;;;;;;17.70;16.40;;;9.50;99.90;;;;;;5038735;28;20435;-48
2023/04/30 02:03:01;;;;;;;18.63;17.13;;;9.50;99.90;;;;;;5040335;28;20433;-51
2023/04/30 02:05:26;;;;;;;18.30;16.80;;;9.40;99.90;;;;;;5040754;28;20657;-52
2023/04/30 02:07:52;;;;;;;18.40;17.00;;;9.40;99.90;;;;;;5043039;28;20722;-50
2023/04/30 02:10:37;;;;;;;18.53;17.17;;;9.30;99.90;;;;;;5042750;28;20191;-49
2023/04/30 02:13:03;;;;;;;19.03;17.53;;;9.20;99.90;;;;;;5025405;28;20910;-51
2023/04/30 02:15:28;;;;;;;17.90;16.60;;;9.10;99.90;;;;;;5039320;28;20508;-52
2023/04/30 02:17:54;;;;;;;20.13;18.33;;;9.10;99.90;;;;;;5041732;28;20236;-49
2023/04/30 02:20:19;;;;;;;22.20;20.20;;;9.10;99.90;;;;;;5042693;28;20209;-51
2023/04/30 02:22:45;;;;;;;22.10;20.10;;;9.00;99.90;;;;;;5042382;28;20271;-53
2023/04/30 02:25:13;;;;;;;21.00;19.10;;;9.00;99.90;;;;;;5039622;28;20611;-51
2023/04/30 02:27:39;;;;;;;20.70;18.90;;;9.00;99.90;;;;;;5042252;28;20287;-48
2023/04/30 02:30:05;;;;;;;21.33;19.33;;;9.00;99.90;;;;;;5040740;28;20551;-49
2023/04/30 02:32:31;;;;;;;19.83;18.13;;;9.10;99.90;;;;;;5042243;28;20466;-50
2023/04/30 02:34:57;;;;;;;21.07;19.17;;;9.00;99.90;;;;;;5039597;28;20495;-49
2023/04/30 02:37:23;;;;;;;19.90;18.30;;;8.90;99.90;;;;;;5055334;28;20567;-48
2023/04/30 02:39:50;;;;;;;19.37;17.80;;;9.00;99.90;;;;;;5042382;28;20216;-53
2023/04/30 02:42:16;;;;;;;21.10;19.37;;;9.00;99.90;;;;;;5042422;28;20186;-49
2023/04/30 02:44:42;;;;;;;19.10;17.40;;;8.90;99.90;;;;;;5041907;28;21059;-52
2023/04/30 02:47:08;;;;;;;19.57;17.90;;;8.90;99.90;;;;;;5041097;28;20189;-48
2023/04/30 02:49:33;;;;;;;18.03;16.53;;;8.80;99.90;;;;;;5042135;28;20421;-46
2023/04/30 02:51:59;;;;;;;18.40;16.90;;;8.80;99.90;;;;;;5040263;28;20282;-52
2023/04/30 02:54:25;;;;;;;19.37;17.77;;;8.80;99.90;;;;;;5040853;28;20231;-51
2023/04/30 02:56:50;;;;;;;18.17;16.67;;;8.80;99.90;;;;;;5038684;28;20463;-52
2023/04/30 02:59:16;;;;;;;18.27;16.77;;;8.70;99.90;;;;;;5060427;28;20189;-50
2023/04/30 03:01:42;;;;;;;19.73;18.13;;;8.80;99.90;;;;;;5061521;28;20188;-49
2023/04/30 03:04:07;;;;;;;17.60;16.10;;;8.80;99.90;;;;;;5061857;28;20197;-52
2023/04/30 03:06:33;;;;;;;17.87;16.30;;;8.70;99.90;;;;;;5055371;28;20236;-48
2023/04/30 03:08:59;;;;;;;17.50;16.30;;;8.70;99.90;;;;;;5043375;28;20234;-50
2023/04/30 03:11:25;;;;;;;17.90;16.40;;;8.70;99.90;;;;;;5058955;28;20208;-51
2023/04/30 03:13:50;;;;;;;17.90;16.50;;;8.70;99.90;;;;;;5048495;28;20519;-48
2023/04/30 03:16:18;;;;;;;17.27;15.97;;;8.60;99.90;;;;;;5043236;28;20241;-51
2023/04/30 03:18:44;;;;;;;17.50;16.20;;;8.60;99.90;;;;;;5041083;28;20192;-48
2023/04/30 03:21:10;;;;;;;17.57;16.27;;;8.60;99.90;;;;;;5041340;28;20464;-50
2023/04/30 03:23:35;;;;;;;16.77;15.67;;;8.40;99.90;;;;;;5041213;28;20424;-54
2023/04/30 03:26:01;;;;;;;16.87;15.67;;;8.40;99.90;;;;;;5045962;28;20204;-50
2023/04/30 03:28:27;;;;;;;15.90;14.70;;;8.30;99.90;;;;;;5054586;28;20546;-50
2023/04/30 03:30:52;;;;;;;16.27;15.17;;;8.20;99.90;;;;;;5041029;28;21066;-52
2023/04/30 03:33:18;;;;;;;16.77;15.40;;;8.20;99.90;;;;;;5040929;28;20251;-47
2023/04/30 03:35:44;;;;;;;16.63;15.33;;;8.20;99.90;;;;;;5053083;28;20667;-51
2023/04/30 03:38:10;;;;;;;16.93;15.73;;;8.10;99.90;;;;;;5046364;28;20282;-51
2023/04/30 03:40:35;;;;;;;16.53;15.40;;;8.10;99.90;;;;;;5044016;28;21036;-49
2023/04/30 03:43:01;;;;;;;17.30;16.00;;;8.00;99.90;;;;;;5048916;28;20192;-49
2023/04/30 03:45:26;;;;;;;16.30;15.10;;;8.00;99.90;;;;;;5051182;28;20648;-49
2023/04/30 03:47:52;;;;;;;15.77;14.50;;;7.90;99.90;;;;;;5056206;28;20537;-51
2023/04/30 03:50:18;;;;;;;16.30;15.10;;;7.90;99.90;;;;;;5060688;28;20177;-48
2023/04/30 03:52:44;;;;;;;16.30;15.10;;;7.80;99.90;;;;;;5058431;28;20200;-54
2023/04/30 03:55:10;;;;;;;15.80;14.60;;;7.80;99.90;;;;;;5038168;28;20423;-51
2023/04/30 03:57:37;;;;;;;16.30;15.10;;;7.80;99.90;;;;;;5054158;28;20465;-48
2023/04/30 04:00:08;;;;;;;15.07;14.07;;;7.70;99.90;;;;;;5060185;28;20188;-49
2023/04/30 04:02:35;;;;;;;15.80;14.50;;;7.70;99.90;;;;;;5060497;28;20428;-51
2023/04/30 04:05:00;;;;;;;15.20;14.00;;;7.70;99.90;;;;;;5049044;28;20520;-45
2023/04/30 04:07:26;;;;;;;15.57;14.33;;;7.70;99.90;;;;;;5022759;28;20424;-50
2023/04/30 04:09:51;;;;;;;15.40;14.20;;;7.70;99.90;;;;;;5040886;28;20185;-53
2023/04/30 04:12:17;;;;;;;15.03;13.93;;;7.70;99.90;;;;;;5026382;28;20220;-49
2023/04/30 04:14:43;;;;;;;16.50;15.00;;;7.70;99.90;;;;;;5043145;28;20204;-53
2023/04/30 04:17:08;;;;;;;16.63;15.33;;;7.70;99.90;;;;;;5039249;28;20304;-51
2023/04/30 04:19:34;;;;;;;15.70;14.43;;;7.70;99.90;;;;;;5044413;28;20180;-55
2023/04/30 04:22:00;;;;;;;16.03;14.93;;;7.70;99.90;;;;;;5041713;28;20682;-49
2023/04/30 04:24:25;;;;;;;16.07;14.80;;;7.70;99.90;;;;;;5059937;28;20264;-50
2023/04/30 04:26:52;;;;;;;16.77;15.47;;;7.70;99.90;;;;;;5055258;28;20262;-48
2023/04/30 04:29:18;;;;;;;15.87;14.70;;;7.70;99.90;;;;;;5049590;28;20521;-51
2023/04/30 04:31:44;;;;;;;15.90;14.70;;;7.70;99.90;;;;;;5039793;28;20207;-50
2023/04/30 04:34:10;;;;;;;15.37;14.27;;;7.70;99.90;;;;;;5047717;28;20193;-50
2023/04/30 04:36:36;;;;;;;15.93;14.83;;;7.70;99.90;;;;;;5044959;28;20363;-52
2023/04/30 04:39:01;;;;;;;16.33;15.17;;;7.70;99.90;;;;;;5049388;28;20418;-50
2023/04/30 04:41:31;;;;;;;15.60;14.40;;;7.70;99.90;;;;;;5059950;28;20180;-49
2023/04/30 04:43:57;;;;;;;15.43;14.33;;;7.70;99.90;;;;;;5054791;28;20173;-50
2023/04/30 04:46:24;;;;;;;16.87;15.47;;;7.70;99.90;;;;;;5056474;28;20431;-51
2023/04/30 04:48:49;;;;;;;15.27;14.07;;;7.70;99.90;;;;;;5059835;28;20891;-49
2023/04/30 04:51:15;;;;;;;15.50;14.50;;;7.70;99.90;;;;;;5046355;28;20434;-52
2023/04/30 04:53:40;;;;;;;15.43;14.43;;;7.70;99.90;;;;;;5053546;28;20181;-54
2023/04/30 04:56:07;;;;;;;15.90;14.80;;;7.70;99.90;;;;;;5044464;28;20205;-50
2023/04/30 04:58:32;;;;;;;16.10;14.90;;;7.70;99.90;;;;;;5048402;28;20285;-49
2023/04/30 05:00:58;;;;;;;16.87;15.57;;;7.70;99.90;;;;;;5047970;28;20521;-53
2023/04/30 05:03:25;;;;;;;16.47;15.17;;;7.70;99.90;;;;;;5063509;28;21301;-53
2023/04/30 05:05:51;;;;;;;15.40;14.30;;;7.70;99.90;;;;;;5052218;28;20430;-51
2023/04/30 05:08:17;;;;;;;16.23;14.93;;;7.80;99.90;;;;;;5044416;28;20416;-50
2023/04/30 05:10:43;;;;;;;15.93;14.60;;;7.80;99.90;;;;;;5042489;28;20264;-53
2023/04/30 05:13:08;;;;;;;15.47;14.40;;;7.90;99.90;;;;;;5047396;28;20427;-51
2023/04/30 05:15:34;;;;;;;15.00;14.00;;;7.90;99.90;;;;;;5049407;28;20302;-55
2023/04/30 05:18:00;;;;;;;16.70;15.50;;;7.90;99.90;;;;;;5052475;28;20185;-51
2023/04/30 05:20:25;;;;;;;15.73;14.63;;;8.10;99.90;;;;;;5041288;28;20899;-50
2023/04/30 05:22:51;;;;;;;16.13;15.03;;;8.10;99.90;;;;;;5044231;28;20182;-46
2023/04/30 05:25:17;;;;;;;14.37;13.47;;;8.10;99.90;;;;;;5043229;28;20184;-50
2023/04/30 05:27:42;;;;;;;14.93;13.93;;;8.20;99.90;;;;;;5043837;28;20192;-53
2023/04/30 05:30:08;;;;;;;16.40;15.00;;;8.20;99.90;;;;;;5045599;28;20189;-51
2023/04/30 05:32:34;;;;;;;15.73;14.53;;;8.20;99.90;;;;;;5041557;28;21132;-49
2023/04/30 05:35:00;;;;;;;14.47;13.47;;;8.30;99.90;;;;;;5043990;28;20472;-56
2023/04/30 05:37:26;;;;;;;15.63;14.30;;;8.30;99.90;;;;;;5043428;28;20467;-52
2023/04/30 05:39:54;;;;;;;15.00;14.03;;;8.30;99.90;;;;;;5041054;28;21333;-49
2023/04/30 05:42:20;;;;;;;16.10;15.00;;;8.30;99.90;;;;;;5042100;28;20181;-53
2023/04/30 05:44:48;;;;;;;14.60;13.60;;;8.40;99.90;;;;;;5042536;28;20416;-47
2023/04/30 05:47:14;;;;;;;14.40;13.50;;;8.40;99.90;;;;;;5043510;28;20992;-50
2023/04/30 05:49:40;;;;;;;14.57;13.67;;;8.40;99.90;;;;;;5042029;28;20431;-49
2023/04/30 05:52:06;;;;;;;15.27;14.17;;;8.50;99.90;;;;;;5043144;28;21228;-53
2023/04/30 05:54:32;;;;;;;14.87;13.87;;;8.60;99.90;;;;;;5043485;28;20220;-50
2023/04/30 05:56:57;;;;;;;15.03;14.03;;;8.70;99.90;;;;;;5037853;28;20198;-51
2023/04/30 05:59:23;;;;;;;14.80;13.80;;;8.70;99.90;;;;;;5032660;28;20514;-53
2023/04/30 06:01:48;;;;;;;15.77;14.47;;;8.70;99.90;;;;;;5039980;28;20194;-53
2023/04/30 06:04:14;;;;;;;14.87;13.70;;;8.70;99.90;;;;;;5042946;28;20231;-47
2023/04/30 06:06:40;;;;;;;14.67;13.77;;;8.70;99.90;;;;;;5042184;28;20293;-46
2023/04/30 06:09:05;;;;;;;14.60;13.60;;;8.70;99.90;;;;;;5038218;28;20552;-55
2023/04/30 06:11:31;;;;;;;14.53;13.63;;;8.70;99.90;;;;;;5034651;28;20205;-52
2023/04/30 06:13:57;;;;;;;14.50;13.60;;;8.70;99.90;;;;;;5042866;28;20189;-49
2023/04/30 06:16:23;;;;;;;15.27;14.17;;;8.60;99.90;;;;;;5031647;28;20669;-48
2023/04/30 06:18:48;;;;;;;15.20;14.00;;;8.60;99.90;;;;;;5042785;28;20488;-53
2023/04/30 06:21:14;;;;;;;15.30;14.23;;;8.70;99.90;;;;;;5041191;28;20182;-51
2023/04/30 06:23:40;;;;;;;14.67;13.77;;;8.70;99.90;;;;;;5042827;28;20659;-53
2023/04/30 06:26:05;;;;;;;16.50;14.90;;;8.70;99.90;;;;;;5022177;28;20185;-48
2023/04/30 06:28:31;;;;;;;14.70;13.60;;;8.80;99.90;;;;;;5039339;28;20552;-48
2023/04/30 06:30:57;;;;;;;15.27;14.00;;;8.80;99.90;;;;;;5042820;28;20206;-48
2023/04/30 06:33:22;;;;;;;15.00;13.87;;;8.80;99.90;;;;;;5039958;28;20538;-48
2023/04/30 06:35:49;;;;;;;16.03;14.83;;;8.80;99.90;;;;;;5030470;28;20245;-50
2023/04/30 06:38:17;;;;;;;15.40;14.40;;;8.80;99.90;;;;;;5019038;28;20178;-50
2023/04/30 06:40:43;;;;;;;15.33;14.33;;;8.90;99.90;;;;;;5021011;28;20445;-50
2023/04/30 06:43:08;;;;;;;16.00;14.53;;;9.00;99.90;;;;;;5024834;28;20445;-47
2023/04/30 06:45:34;;;;;;;15.03;14.03;;;9.10;99.90;;;;;;5010210;28;20503;-49
2023/04/30 06:48:00;;;;;;;16.10;14.90;;;9.10;99.90;;;;;;5036736;28;20278;-50
2023/04/30 06:50:25;;;;;;;16.33;15.13;;;9.10;99.90;;;;;;5025604;28;20608;-49
2023/04/30 06:52:51;;;;;;;15.40;14.40;;;9.30;99.90;;;;;;5025318;28;20187;-51
2023/04/30 06:55:17;;;;;;;16.10;15.00;;;9.40;99.90;;;;;;5027371;28;20190;-53
2023/04/30 06:57:43;;;;;;;16.30;15.00;;;9.40;99.90;;;;;;5023928;28;20272;-52
2023/04/30 07:00:09;;;;;;;14.77;13.77;;;9.40;99.90;;;;;;5021778;28;20527;-48
2023/04/30 07:02:34;;;;;;;15.63;14.53;;;9.50;99.90;;;;;;5031918;28;20185;-51
2023/04/30 07:05:00;;;;;;;15.70;14.60;;;9.50;99.90;;;;;;5041211;28;20425;-50
2023/04/30 07:07:26;;;;;;;14.70;13.70;;;9.60;99.90;;;;;;5041376;28;20202;-48
2023/04/30 07:09:52;;;;;;;14.57;13.50;;;9.60;99.90;;;;;;5035760;28;20186;-51
2023/04/30 07:12:18;;;;;;;15.20;14.10;;;9.60;99.90;;;;;;5028319;28;20605;-49
2023/04/30 07:14:43;;;;;;;14.63;13.70;;;9.70;99.90;;;;;;5039509;28;20503;-49
2023/04/30 07:17:10;;;;;;;14.87;13.97;;;9.80;99.90;;;;;;5019742;28;21312;-48
2023/04/30 07:19:35;;;;;;;14.40;13.40;;;9.90;99.90;;;;;;5034089;28;20183;-47
2023/04/30 07:22:01;;;;;;;14.90;14.00;;;9.90;99.90;;;;;;5022923;28;20484;-49
2023/04/30 07:24:27;;;;;;;14.20;13.20;;;9.90;99.90;;;;;;5040954;28;20195;-53
2023/04/30 07:26:53;;;;;;;14.50;13.60;;;10.00;99.90;;;;;;5033623;28;20494;-51
2023/04/30 07:29:18;;;;;;;14.77;13.80;;;10.20;99.90;;;;;;5021002;28;20663;-47
2023/04/30 07:31:44;;;;;;;14.40;13.50;;;10.30;99.90;;;;;;5020881;28;20269;-53
2023/04/30 07:34:10;;;;;;;14.33;13.10;;;10.50;99.90;;;;;;5020916;28;20197;-49
2023/04/30 07:36:37;;;;;;;14.87;13.47;;;10.60;99.90;;;;;;5033502;28;20278;-48
2023/04/30 07:39:04;;;;;;;14.20;13.10;;;10.70;99.90;;;;;;5003485;28;20276;-49
2023/04/30 07:41:30;;;;;;;14.30;13.40;;;10.90;99.90;;;;;;5021772;28;20424;-48
2023/04/30 07:43:55;;;;;;;14.80;13.70;;;10.90;99.90;;;;;;5021561;28;20425;-49
2023/04/30 07:46:23;;;;;;;14.90;14.00;;;10.90;99.90;;;;;;5021585;28;20193;-50
2023/04/30 07:48:49;;;;;;;16.47;15.13;;;11.10;99.90;;;;;;5018641;28;20186;-53
2023/04/30 07:51:15;;;;;;;15.27;14.27;;;11.30;99.90;;;;;;5020696;28;20428;-48
2023/04/30 07:53:40;;;;;;;15.23;14.10;;;11.50;99.90;;;;;;5018649;28;20668;-49
2023/04/30 07:56:07;;;;;;;14.00;13.10;;;11.70;99.90;;;;;;5011480;28;20428;-49
2023/04/30 07:58:32;;;;;;;15.00;14.00;;;12.00;99.90;;;;;;5025911;28;20209;-51
2023/04/30 08:00:58;;;;;;;15.67;14.47;;;12.20;99.90;;;;;;5017954;28;20433;-53
2023/04/30 08:03:24;;;;;;;15.07;14.07;;;12.10;99.80;;;;;;5015120;28;20197;-49
2023/04/30 08:05:51;;;;;;;14.87;14.03;;;12.30;99.90;;;;;;4999479;28;20277;-50
2023/04/30 08:08:16;;;;;;;16.27;15.17;;;12.50;99.90;;;;;;5020027;28;20183;-50
2023/04/30 08:10:42;;;;;;;14.80;13.90;;;12.80;99.80;;;;;;5020761;28;20440;-53
2023/04/30 08:13:08;;;;;;;14.60;13.57;;;13.00;97.40;;;;;;5016578;28;20194;-49
2023/04/30 08:15:33;;;;;;;15.83;14.73;;;12.80;96.70;;;;;;5020654;28;20221;-52
2023/04/30 08:17:59;;;;;;;15.17;14.17;;;12.80;97.10;;;;;;5020539;28;20525;-51
2023/04/30 08:20:25;;;;;;;15.00;14.10;;;12.70;96.60;;;;;;5019440;28;20182;-53
2023/04/30 08:22:51;;;;;;;15.43;14.33;;;12.70;97.80;;;;;;5027973;28;20247;-48
2023/04/30 08:25:16;;;;;;;15.20;14.10;;;12.90;97.50;;;;;;5026694;28;20190;-48
2023/04/30 08:27:42;;;;;;;14.73;13.73;;;12.90;95.40;;;;;;5000486;28;20449;-47
2023/04/30 08:30:08;;;;;;;13.80;13.00;;;12.70;95.40;;;;;;5018322;28;21186;-51
2023/04/30 08:32:35;;;;;;;14.27;13.47;;;12.80;95.20;;;;;;5027983;28;20225;-52
2023/04/30 08:35:04;;;;;;;13.77;12.97;;;12.80;94.30;;;;;;5021372;28;20522;-52
2023/04/30 08:37:30;;;;;;;14.00;13.03;;;12.60;94.70;;;;;;5038340;28;20487;-51
2023/04/30 08:39:55;;;;;;;15.77;14.47;;;12.50;95.20;;;;;;5032380;28;20440;-53
2023/04/30 08:42:24;;;;;;;13.90;13.00;;;12.60;95.50;;;;;;5030673;28;20187;-52
2023/04/30 08:44:50;;;;;;;13.90;13.10;;;12.70;94.00;;;;;;5037382;28;20972;-51
2023/04/30 08:47:16;;;;;;;13.97;12.97;;;12.80;95.90;;;;;;5030714;28;20465;-51
2023/04/30 08:49:44;;;;;;;13.80;12.90;;;13.20;94.50;;;;;;5039188;28;20635;-54
2023/04/30 08:52:10;;;;;;;13.80;12.90;;;13.70;94.80;;;;;;5036390;28;20467;-50
2023/04/30 08:54:36;;;;;;;13.80;13.00;;;13.90;94.50;;;;;;5035966;28;20852;-50
2023/04/30 08:57:02;;;;;;;13.63;12.90;;;14.10;94.20;;;;;;5039272;28;20674;-49
2023/04/30 08:59:28;;;;;;;14.03;13.13;;;14.40;93.40;;;;;;5036837;28;20440;-51
2023/04/30 09:01:53;;;;;;;12.87;12.07;;;14.60;92.30;;;;;;5019903;28;20464;-51
2023/04/30 09:04:19;;;;;;;13.50;12.60;;;14.80;91.50;;;;;;5036524;28;20178;-52
2023/04/30 09:06:45;;;;;;;13.67;12.80;;;14.80;89.00;;;;;;5026706;28;20188;-52
2023/04/30 09:09:15;;;;;;;13.43;12.73;;;15.10;88.00;;;;;;5037085;28;20443;-51
2023/04/30 09:11:41;;;;;;;13.70;12.90;;;15.50;87.50;;;;;;5009402;28;20460;-49
2023/04/30 09:14:08;;;;;;;13.53;12.53;;;16.10;85.70;;;;;;5036402;28;20470;-49
2023/04/30 09:16:48;;;;;;;14.00;13.30;;;16.90;82.40;;;;;;5037516;28;20460;-52
2023/04/30 09:19:28;;;;;;;14.27;13.37;;;17.50;79.10;;;;;;5038097;28;20420;-49
2023/04/30 09:21:54;;;;;;;13.60;12.80;;;18.30;75.50;;;;;;5035840;28;20431;-48
2023/04/30 09:24:20;;;;;;;13.70;12.57;;;18.60;66.10;;;;;;5037960;28;20427;-53
2023/04/30 09:26:46;;;;;;;12.90;11.90;;;18.40;65.40;;;;;;5038981;28;20416;-54
2023/04/30 09:29:12;;;;;;;13.27;12.47;;;18.90;61.80;;;;;;5037838;28;20264;-51
2023/04/30 09:31:40;;;;;;;13.13;12.33;;;18.60;57.90;;;;;;5034280;28;20524;-54
2023/04/30 09:34:06;;;;;;;13.13;12.40;;;18.00;57.50;;;;;;5035557;28;20437;-52
2023/04/30 09:36:32;;;;;;;12.90;12.07;;;17.90;56.70;;;;;;5052348;28;21034;-51
2023/04/30 09:39:10;;;;;;;13.67;12.77;;;18.00;55.70;;;;;;5055886;28;20185;-49
2023/04/30 09:41:37;;;;;;;13.60;12.73;;;18.50;55.40;;;;;;5046159;28;20523;-48
2023/04/30 09:44:03;;;;;;;13.53;12.73;;;18.90;53.90;;;;;;5040984;28;21102;-50
2023/04/30 09:46:32;;;;;;;13.40;12.70;;;18.70;52.60;;;;;;5040950;28;20527;-50
2023/04/30 09:49:00;;;;;;;13.57;12.77;;;18.70;55.10;;;;;;5036729;28;20443;-51
2023/04/30 09:51:26;;;;;;;13.43;12.63;;;19.40;53.70;;;;;;5038178;28;21035;-47
2023/04/30 09:53:53;;;;;;;14.10;13.20;;;20.10;51.60;;;;;;5041953;28;20522;-52
2023/04/30 09:56:23;;;;;;;13.50;12.77;;;21.00;50.50;;;;;;5048285;28;21278;-52
2023/04/30 09:58:53;;;;;;;13.27;12.57;;;21.50;48.80;;;;;;5061938;28;20415;-52
2023/04/30 10:01:26;;;;;;;13.67;12.93;;;21.80;44.60;;;;;;5049720;28;20535;-52
2023/04/30 10:03:52;;;;;;;12.80;12.07;;;21.40;45.30;;;;;;5039889;28;20759;-53
2023/04/30 10:06:20;;;;;;;12.80;12.00;;;21.20;45.70;;;;;;5062005;28;20431;-50
2023/04/30 10:08:49;;;;;;;13.60;12.90;;;20.70;43.70;;;;;;5061843;28;20423;-52
2023/04/30 10:11:20;;;;;;;12.87;12.17;;;20.20;46.90;;;;;;5061156;28;21585;-51
2023/04/30 10:14:06;;;;;;;12.77;12.00;;;19.70;47.50;;;;;;5040971;28;20458;-54
2023/04/30 10:16:48;;;;;;;14.00;13.23;;;19.90;48.20;;;;;;5054259;28;20457;-49
2023/04/30 10:19:21;;;;;;;13.87;13.10;;;19.80;47.40;;;;;;5050584;28;20412;-47
2023/04/30 10:21:47;;;;;;;13.77;12.97;;;20.10;47.20;;;;;;5041035;28;20420;-50
2023/04/30 10:24:14;;;;;;;12.83;12.03;;;19.40;44.50;;;;;;5042010;28;20416;-49
2023/04/30 10:26:40;;;;;;;13.43;12.73;;;19.50;44.50;;;;;;5042761;28;20198;-51
2023/04/30 10:29:06;;;;;;;13.77;13.00;;;19.40;46.10;;;;;;5041402;28;20440;-52
2023/04/30 10:31:33;;;;;;;12.13;11.53;;;19.30;48.50;;;;;;5041055;28;20444;-46
2023/04/30 10:34:29;;;;;;;13.40;12.60;;;19.10;48.10;;;;;;5041265;28;20471;-49
2023/04/30 10:36:59;;;;;;;13.37;12.57;;;19.90;49.10;;;;;;5041079;28;20483;-49
2023/04/30 10:39:29;;;;;;;13.00;12.30;;;20.50;44.40;;;;;;5036154;28;20431;-47
2023/04/30 10:42:05;;;;;;;13.03;12.33;;;20.50;42.60;;;;;;5041206;28;20451;-51
2023/04/30 10:44:33;;;;;;;12.60;11.93;;;21.20;45.50;;;;;;5043251;28;20996;-49
2023/04/30 10:47:03;;;;;;;12.60;11.90;;;21.70;45.40;;;;;;5056580;28;20439;-51
2023/04/30 10:49:29;;;;;;;11.53;10.90;;;22.10;44.60;;;;;;5040436;28;20436;-52
2023/04/30 10:51:59;;;;;;;12.00;11.40;;;22.10;41.40;;;;;;5048549;28;20435;-52
2023/04/30 10:54:26;;;;;;;13.23;12.43;;;22.70;41.70;;;;;;5038528;28;20432;-48
2023/04/30 10:56:55;;;;;;;12.70;12.00;;;22.40;38.40;;;;;;5040468;28;20933;-48
2023/04/30 10:59:21;;;;;;;12.20;11.53;;;22.70;36.60;;;;;;5056190;28;20438;-50
2023/04/30 11:02:00;;;;;;;12.10;11.40;;;22.80;39.60;;;;;;5041092;28;20455;-49
2023/04/30 11:04:26;;;;;;;13.60;12.90;;;23.00;38.50;;;;;;5040948;28;20440;-49
2023/04/30 11:06:55;;;;;;;11.33;10.83;;;22.80;35.90;;;;;;5040636;28;20436;-49
2023/04/30 11:09:38;;;;;;;11.00;10.50;;;23.30;38.50;;;;;;5041771;28;20428;-48
2023/04/30 11:12:14;;;;;;;12.57;11.87;;;24.20;36.30;;;;;;5041747;28;20451;-52
2023/04/30 11:14:44;;;;;;;12.27;11.57;;;24.70;34.40;;;;;;5055273;28;20441;-53
2023/04/30 11:17:12;;;;;;;13.83;13.13;;;25.20;34.00;;;;;;5040115;28;20460;-52
2023/04/30 11:19:46;;;;;;;12.43;11.70;;;25.20;32.40;;;;;;5041568;28;20422;-53
2023/04/30 11:22:12;;;;;;;12.57;11.97;;;25.20;29.50;;;;;;5036818;28;20432;-49
2023/04/30 11:24:50;;;;;;;11.90;11.30;;;24.90;32.00;;;;;;5040858;28;20454;-53
2023/04/30 11:27:24;;;;;;;11.60;11.10;;;25.10;32.30;;;;;;5040896;28;20243;-50
2023/04/30 11:29:51;;;;;;;11.60;11.10;;;25.50;30.70;;;;;;5046794;28;20482;-52
2023/04/30 11:32:22;;;;;;;10.97;10.37;;;25.50;28.50;;;;;;5042337;28;20479;-49
2023/04/30 11:34:48;;;;;;;11.70;11.10;;;25.90;28.60;;;;;;5037241;28;20473;-49
2023/04/30 11:37:35;;;;;;;11.03;10.43;;;26.20;28.90;;;;;;5021931;28;21119;-51
2023/04/30 11:40:11;;;;;;;11.50;10.90;;;25.90;27.30;;;;;;5034212;28;20437;-53
2023/04/30 11:42:42;;;;;;;11.70;11.00;;;26.10;28.80;;;;;;5033423;28;20472;-48
2023/04/30 11:45:13;;;;;;;12.87;12.17;;;25.90;28.90;;;;;;5040197;28;20952;-52
2023/04/30 11:47:45;;;;;;;12.77;12.17;;;26.50;27.90;;;;;;5021632;28;20444;-51
2023/04/30 11:50:15;;;;;;;12.40;11.80;;;26.40;26.10;;;;;;5024014;28;20461;-53
2023/04/30 11:52:47;;;;;;;11.87;11.27;;;26.60;27.90;;;;;;5028859;28;20846;-51
2023/04/30 11:55:18;;;;;;;12.30;11.70;;;26.80;28.00;;;;;;5022722;28;20799;-49
2023/04/30 11:57:46;;;;;;;12.23;11.53;;;25.70;23.70;;;;;;5020626;28;20461;-48
2023/04/30 12:00:13;;;;;;;12.40;11.80;;;25.10;27.00;;;;;;5021227;28;20545;-51
2023/04/30 12:02:39;;;;;;;11.50;10.83;;;23.90;24.80;;;;;;5020949;28;20454;-49
2023/04/30 12:05:12;;;;;;;11.67;11.10;;;25.00;26.70;;;;;;5021396;28;21295;-52
2023/04/30 12:07:38;;;;;;;12.13;11.50;;;25.10;27.70;;;;;;5020270;28;20429;-55
2023/04/30 12:10:04;;;;;;;12.30;11.70;;;25.40;27.30;;;;;;5035155;28;20436;-51
2023/04/30 12:12:30;;;;;;;11.87;11.30;;;26.10;26.30;;;;;;5029456;28;21288;-51
2023/04/30 12:14:56;;;;;;;11.53;10.93;;;26.70;25.70;;;;;;5021275;28;20423;-51
2023/04/30 12:17:34;;;;;;;11.40;10.90;;;26.70;26.70;;;;;;5020791;28;20652;-46
2023/04/30 12:20:00;;;;;;;11.60;11.10;;;27.00;26.30;;;;;;5020827;28;20440;-52
2023/04/30 12:22:26;;;;;;;10.87;10.33;;;27.20;26.00;;;;;;5030136;28;20772;-51
2023/04/30 12:24:58;;;;;;;11.80;11.30;;;27.40;25.20;;;;;;5031941;28;20441;-49
2023/04/30 12:27:23;;;;;;;12.33;11.63;;;27.60;25.40;;;;;;5020149;28;20515;-51
2023/04/30 12:29:53;;;;;;;11.77;11.27;;;28.00;24.40;;;;;;5020914;28;20520;-48
2023/04/30 12:32:20;;;;;;;10.80;10.20;;;27.40;21.90;;;;;;5021593;28;20353;-48